sensor_id;sensor_type;location;lat;lon;timestamp;temperature;humidity
16503;DHT22;53067;48.114;11.694;2023-02-15T00:02:01;2.10;88.00
16503;DHT22;53067;48.114;11.694;2023-02-15T00:04:28;2.10;88.20
16503;DHT22;53067;48.114;11.694;2023-02-15T00:07:16;2.10;88.30
16503;DHT22;53067;48.114;11.694;2023-02-15T00:09:54;2.10;88.30
16503;DHT22;53067;48.114;11.694;2023-02-15T00:12:22;2.10;88.00
16503;DHT22;53067;48.114;11.694;2023-02-15T00:14:49;2.10;88.40
16503;DHT22;53067;48.114;11.694;2023-02-15T00:17:17;2.20;88.40
16503;DHT22;53067;48.114;11.694;2023-02-15T00:19:44;2.10;88.50
16503;DHT22;53067;48.114;11.694;2023-02-15T00:22:12;2.10;88.50
16503;DHT22;53067;48.114;11.694;2023-02-15T00:24:39;2.20;88.50
16503;DHT22;53067;48.114;11.694;2023-02-15T00:27:07;2.20;88.60
16503;DHT22;53067;48.114;11.694;2023-02-15T00:29:35;2.20;88.40
16503;DHT22;53067;48.114;11.694;2023-02-15T00:32:03;2.20;88.10
16503;DHT22;53067;48.114;11.694;2023-02-15T00:34:31;2.20;88.10
16503;DHT22;53067;48.114;11.694;2023-02-15T00:36:58;2.20;87.90
16503;DHT22;53067;48.114;11.694;2023-02-15T00:39:26;2.20;87.60
16503;DHT22;53067;48.114;11.694;2023-02-15T00:41:55;2.20;87.60
16503;DHT22;53067;48.114;11.694;2023-02-15T00:44:22;2.10;87.50
16503;DHT22;53067;48.114;11.694;2023-02-15T00:46:50;2.20;87.60
16503;DHT22;53067;48.114;11.694;2023-02-15T00:49:17;2.20;87.50
16503;DHT22;53067;48.114;11.694;2023-02-15T00:51:45;2.10;87.30
16503;DHT22;53067;48.114;11.694;2023-02-15T00:54:12;2.10;87.30
16503;DHT22;53067;48.114;11.694;2023-02-15T00:56:40;2.10;87.40
16503;DHT22;53067;48.114;11.694;2023-02-15T00:59:09;2.10;87.20
16503;DHT22;53067;48.114;11.694;2023-02-15T01:01:36;2.00;86.80
16503;DHT22;53067;48.114;11.694;2023-02-15T01:04:04;2.00;86.90
16503;DHT22;53067;48.114;11.694;2023-02-15T01:06:31;2.00;87.10
16503;DHT22;53067;48.114;11.694;2023-02-15T01:08:59;2.00;87.10
16503;DHT22;53067;48.114;11.694;2023-02-15T01:11:26;1.80;86.90
16503;DHT22;53067;48.114;11.694;2023-02-15T01:13:56;2.00;86.60
16503;DHT22;53067;48.114;11.694;2023-02-15T01:16:27;2.00;86.80
16503;DHT22;53067;48.114;11.694;2023-02-15T01:18:55;2.00;86.80
16503;DHT22;53067;48.114;11.694;2023-02-15T01:21:24;2.00;86.60
16503;DHT22;53067;48.114;11.694;2023-02-15T01:23:53;2.00;86.70
16503;DHT22;53067;48.114;11.694;2023-02-15T01:26:20;2.00;86.40
16503;DHT22;53067;48.114;11.694;2023-02-15T01:28:48;2.00;86.60
16503;DHT22;53067;48.114;11.694;2023-02-15T01:31:17;2.00;86.60
16503;DHT22;53067;48.114;11.694;2023-02-15T01:33:46;1.90;86.10
16503;DHT22;53067;48.114;11.694;2023-02-15T01:36:14;1.90;86.30
16503;DHT22;53067;48.114;11.694;2023-02-15T01:38:44;1.90;86.30
16503;DHT22;53067;48.114;11.694;2023-02-15T01:41:11;1.90;86.30
16503;DHT22;53067;48.114;11.694;2023-02-15T01:43:55;1.80;86.20
16503;DHT22;53067;48.114;11.694;2023-02-15T01:46:32;1.80;86.20
16503;DHT22;53067;48.114;11.694;2023-02-15T01:49:14;1.70;86.30
16503;DHT22;53067;48.114;11.694;2023-02-15T01:51:35;1.70;86.40
16503;DHT22;53067;48.114;11.694;2023-02-15T01:54:15;1.70;86.60
16503;DHT22;53067;48.114;11.694;2023-02-15T01:56:41;1.70;86.80
16503;DHT22;53067;48.114;11.694;2023-02-15T01:59:17;1.70;86.80
16503;DHT22;53067;48.114;11.694;2023-02-15T02:01:39;1.60;86.60
16503;DHT22;53067;48.114;11.694;2023-02-15T02:04:23;1.60;86.50
16503;DHT22;53067;48.114;11.694;2023-02-15T02:06:50;1.50;86.60
16503;DHT22;53067;48.114;11.694;2023-02-15T02:09:18;1.50;86.50
16503;DHT22;53067;48.114;11.694;2023-02-15T02:11:47;1.50;86.60
16503;DHT22;53067;48.114;11.694;2023-02-15T02:14:16;1.40;86.70
16503;DHT22;53067;48.114;11.694;2023-02-15T02:16:53;1.40;86.80
16503;DHT22;53067;48.114;11.694;2023-02-15T02:38:52;1.40;87.30
16503;DHT22;53067;48.114;11.694;2023-02-15T02:41:30;1.40;86.50
16503;DHT22;53067;48.114;11.694;2023-02-15T02:47:04;1.30;86.50
16503;DHT22;53067;48.114;11.694;2023-02-15T02:49:36;1.30;86.50
16503;DHT22;53067;48.114;11.694;2023-02-15T02:52:07;1.30;86.60
16503;DHT22;53067;48.114;11.694;2023-02-15T02:54:36;1.30;86.80
16503;DHT22;53067;48.114;11.694;2023-02-15T02:57:05;1.30;86.70
16503;DHT22;53067;48.114;11.694;2023-02-15T02:59:38;1.20;86.60
16503;DHT22;53067;48.114;11.694;2023-02-15T03:02:09;1.20;86.60
16503;DHT22;53067;48.114;11.694;2023-02-15T03:04:40;1.30;86.80
16503;DHT22;53067;48.114;11.694;2023-02-15T03:07:15;1.20;86.50
16503;DHT22;53067;48.114;11.694;2023-02-15T03:09:48;1.20;86.80
16503;DHT22;53067;48.114;11.694;2023-02-15T03:12:25;1.20;86.60
16503;DHT22;53067;48.114;11.694;2023-02-15T03:14:55;1.10;86.60
16503;DHT22;53067;48.114;11.694;2023-02-15T03:17:25;1.00;86.90
16503;DHT22;53067;48.114;11.694;2023-02-15T03:19:55;1.00;86.90
16503;DHT22;53067;48.114;11.694;2023-02-15T03:22:26;1.00;87.00
16503;DHT22;53067;48.114;11.694;2023-02-15T03:24:56;1.00;86.90
16503;DHT22;53067;48.114;11.694;2023-02-15T03:27:27;1.00;86.80
16503;DHT22;53067;48.114;11.694;2023-02-15T03:29:58;0.90;87.10
16503;DHT22;53067;48.114;11.694;2023-02-15T03:32:28;0.80;86.80
16503;DHT22;53067;48.114;11.694;2023-02-15T03:34:56;0.70;87.20
16503;DHT22;53067;48.114;11.694;2023-02-15T03:37:36;0.80;87.20
16503;DHT22;53067;48.114;11.694;2023-02-15T03:40:18;0.70;87.10
16503;DHT22;53067;48.114;11.694;2023-02-15T03:43:13;0.60;87.60
16503;DHT22;53067;48.114;11.694;2023-02-15T03:45:44;0.60;87.80
16503;DHT22;53067;48.114;11.694;2023-02-15T03:48:13;0.60;87.60
16503;DHT22;53067;48.114;11.694;2023-02-15T03:50:41;0.60;87.80
16503;DHT22;53067;48.114;11.694;2023-02-15T03:53:27;0.70;87.70
16503;DHT22;53067;48.114;11.694;2023-02-15T03:55:55;0.70;87.60
16503;DHT22;53067;48.114;11.694;2023-02-15T03:58:23;0.70;87.50
16503;DHT22;53067;48.114;11.694;2023-02-15T04:01:20;0.80;87.50
16503;DHT22;53067;48.114;11.694;2023-02-15T04:04:35;0.80;87.40
16503;DHT22;53067;48.114;11.694;2023-02-15T04:07:06;0.80;87.30
16503;DHT22;53067;48.114;11.694;2023-02-15T04:09:34;0.80;87.60
16503;DHT22;53067;48.114;11.694;2023-02-15T04:12:20;0.80;87.60
16503;DHT22;53067;48.114;11.694;2023-02-15T04:14:47;0.80;87.40
16503;DHT22;53067;48.114;11.694;2023-02-15T04:17:33;0.80;87.20
16503;DHT22;53067;48.114;11.694;2023-02-15T04:20:00;0.80;87.10
16503;DHT22;53067;48.114;11.694;2023-02-15T04:22:46;0.80;87.30
16503;DHT22;53067;48.114;11.694;2023-02-15T04:25:31;0.80;87.50
16503;DHT22;53067;48.114;11.694;2023-02-15T04:27:59;0.90;87.60
16503;DHT22;53067;48.114;11.694;2023-02-15T04:30:26;0.90;87.30
16503;DHT22;53067;48.114;11.694;2023-02-15T04:32:54;0.90;87.90
16503;DHT22;53067;48.114;11.694;2023-02-15T04:35:23;1.00;87.30
16503;DHT22;53067;48.114;11.694;2023-02-15T04:37:52;0.90;87.30
16503;DHT22;53067;48.114;11.694;2023-02-15T04:40:19;0.90;87.60
16503;DHT22;53067;48.114;11.694;2023-02-15T04:42:50;0.90;88.50
16503;DHT22;53067;48.114;11.694;2023-02-15T04:45:18;0.90;87.70
16503;DHT22;53067;48.114;11.694;2023-02-15T04:47:45;0.90;87.70
16503;DHT22;53067;48.114;11.694;2023-02-15T04:50:13;0.90;87.80
16503;DHT22;53067;48.114;11.694;2023-02-15T04:52:40;0.90;87.70
16503;DHT22;53067;48.114;11.694;2023-02-15T04:55:08;1.00;87.50
16503;DHT22;53067;48.114;11.694;2023-02-15T04:57:35;1.00;87.30
16503;DHT22;53067;48.114;11.694;2023-02-15T05:00:03;1.00;87.20
16503;DHT22;53067;48.114;11.694;2023-02-15T05:02:51;1.00;87.20
16503;DHT22;53067;48.114;11.694;2023-02-15T05:05:19;1.00;87.30
16503;DHT22;53067;48.114;11.694;2023-02-15T05:07:46;1.00;87.10
16503;DHT22;53067;48.114;11.694;2023-02-15T05:10:14;1.00;87.00
16503;DHT22;53067;48.114;11.694;2023-02-15T05:12:42;1.00;86.90
16503;DHT22;53067;48.114;11.694;2023-02-15T05:15:09;0.90;87.00
16503;DHT22;53067;48.114;11.694;2023-02-15T05:17:37;0.90;87.10
16503;DHT22;53067;48.114;11.694;2023-02-15T05:20:05;0.80;87.20
16503;DHT22;53067;48.114;11.694;2023-02-15T05:22:33;0.80;87.30
16503;DHT22;53067;48.114;11.694;2023-02-15T05:25:01;0.90;87.30
16503;DHT22;53067;48.114;11.694;2023-02-15T05:27:46;0.80;87.20
16503;DHT22;53067;48.114;11.694;2023-02-15T05:30:32;0.80;87.30
16503;DHT22;53067;48.114;11.694;2023-02-15T05:32:59;0.70;87.40
16503;DHT22;53067;48.114;11.694;2023-02-15T05:35:27;0.70;87.40
16503;DHT22;53067;48.114;11.694;2023-02-15T05:37:54;0.70;87.30
16503;DHT22;53067;48.114;11.694;2023-02-15T05:40:22;0.80;87.20
16503;DHT22;53067;48.114;11.694;2023-02-15T05:42:49;0.90;87.10
16503;DHT22;53067;48.114;11.694;2023-02-15T05:45:17;0.90;87.10
16503;DHT22;53067;48.114;11.694;2023-02-15T05:47:45;0.90;86.40
16503;DHT22;53067;48.114;11.694;2023-02-15T05:50:12;0.90;86.20
16503;DHT22;53067;48.114;11.694;2023-02-15T05:52:40;0.90;86.00
16503;DHT22;53067;48.114;11.694;2023-02-15T05:55:07;0.80;86.00
16503;DHT22;53067;48.114;11.694;2023-02-15T05:57:35;0.80;85.90
16503;DHT22;53067;48.114;11.694;2023-02-15T06:00:04;0.80;85.80
16503;DHT22;53067;48.114;11.694;2023-02-15T06:02:35;0.80;85.90
16503;DHT22;53067;48.114;11.694;2023-02-15T06:05:04;0.70;85.70
16503;DHT22;53067;48.114;11.694;2023-02-15T06:07:32;0.60;86.10
16503;DHT22;53067;48.114;11.694;2023-02-15T06:10:00;0.60;86.10
16503;DHT22;53067;48.114;11.694;2023-02-15T06:12:27;0.60;86.10
16503;DHT22;53067;48.114;11.694;2023-02-15T06:14:55;0.60;85.90
16503;DHT22;53067;48.114;11.694;2023-02-15T06:17:22;0.60;85.60
16503;DHT22;53067;48.114;11.694;2023-02-15T06:19:50;0.60;85.50
16503;DHT22;53067;48.114;11.694;2023-02-15T06:22:17;0.60;85.50
16503;DHT22;53067;48.114;11.694;2023-02-15T06:24:45;0.60;85.50
16503;DHT22;53067;48.114;11.694;2023-02-15T06:27:12;0.60;85.30
16503;DHT22;53067;48.114;11.694;2023-02-15T06:29:40;0.60;85.20
16503;DHT22;53067;48.114;11.694;2023-02-15T06:32:07;0.60;85.20
16503;DHT22;53067;48.114;11.694;2023-02-15T06:34:35;0.60;84.90
16503;DHT22;53067;48.114;11.694;2023-02-15T06:37:02;0.60;85.10
16503;DHT22;53067;48.114;11.694;2023-02-15T06:39:30;0.60;85.40
16503;DHT22;53067;48.114;11.694;2023-02-15T06:41:58;0.60;85.20
16503;DHT22;53067;48.114;11.694;2023-02-15T06:44:25;0.50;85.00
16503;DHT22;53067;48.114;11.694;2023-02-15T06:46:53;0.40;85.20
16503;DHT22;53067;48.114;11.694;2023-02-15T06:49:20;0.40;86.50
16503;DHT22;53067;48.114;11.694;2023-02-15T06:51:48;0.40;85.90
16503;DHT22;53067;48.114;11.694;2023-02-15T06:54:15;0.40;86.00
16503;DHT22;53067;48.114;11.694;2023-02-15T06:56:43;0.50;86.00
16503;DHT22;53067;48.114;11.694;2023-02-15T06:59:11;0.50;86.10
16503;DHT22;53067;48.114;11.694;2023-02-15T07:01:38;0.60;86.10
16503;DHT22;53067;48.114;11.694;2023-02-15T07:04:06;0.70;86.00
16503;DHT22;53067;48.114;11.694;2023-02-15T07:06:33;0.70;85.70
16503;DHT22;53067;48.114;11.694;2023-02-15T07:09:02;0.80;85.50
16503;DHT22;53067;48.114;11.694;2023-02-15T07:11:30;0.80;85.40
16503;DHT22;53067;48.114;11.694;2023-02-15T07:14:16;0.70;85.30
16503;DHT22;53067;48.114;11.694;2023-02-15T07:16:43;0.80;85.50
16503;DHT22;53067;48.114;11.694;2023-02-15T07:19:11;0.80;85.50
16503;DHT22;53067;48.114;11.694;2023-02-15T07:21:38;0.80;85.50
16503;DHT22;53067;48.114;11.694;2023-02-15T07:24:06;0.90;85.50
16503;DHT22;53067;48.114;11.694;2023-02-15T07:26:34;0.90;85.10
16503;DHT22;53067;48.114;11.694;2023-02-15T07:29:01;0.90;85.20
16503;DHT22;53067;48.114;11.694;2023-02-15T07:31:29;0.80;84.80
16503;DHT22;53067;48.114;11.694;2023-02-15T07:33:57;0.80;85.20
16503;DHT22;53067;48.114;11.694;2023-02-15T07:36:24;0.80;85.40
16503;DHT22;53067;48.114;11.694;2023-02-15T07:38:52;0.80;85.80
16503;DHT22;53067;48.114;11.694;2023-02-15T07:41:19;0.80;84.90
16503;DHT22;53067;48.114;11.694;2023-02-15T07:43:47;0.90;85.00
16503;DHT22;53067;48.114;11.694;2023-02-15T07:46:15;0.90;84.90
16503;DHT22;53067;48.114;11.694;2023-02-15T07:48:44;1.00;84.70
16503;DHT22;53067;48.114;11.694;2023-02-15T07:51:13;1.00;84.60
16503;DHT22;53067;48.114;11.694;2023-02-15T07:53:43;1.00;84.60
16503;DHT22;53067;48.114;11.694;2023-02-15T07:56:12;1.00;84.70
16503;DHT22;53067;48.114;11.694;2023-02-15T07:58:40;1.10;84.50
16503;DHT22;53067;48.114;11.694;2023-02-15T08:01:32;1.10;84.50
16503;DHT22;53067;48.114;11.694;2023-02-15T08:04:01;1.10;84.40
16503;DHT22;53067;48.114;11.694;2023-02-15T08:06:31;1.10;84.50
16503;DHT22;53067;48.114;11.694;2023-02-15T08:08:59;1.10;84.50
16503;DHT22;53067;48.114;11.694;2023-02-15T08:11:29;1.10;84.50
16503;DHT22;53067;48.114;11.694;2023-02-15T08:14:10;1.10;84.30
16503;DHT22;53067;48.114;11.694;2023-02-15T08:16:49;1.20;84.90
16503;DHT22;53067;48.114;11.694;2023-02-15T08:19:19;1.30;84.30
16503;DHT22;53067;48.114;11.694;2023-02-15T08:21:57;1.30;84.10
16503;DHT22;53067;48.114;11.694;2023-02-15T08:24:25;1.30;83.70
16503;DHT22;53067;48.114;11.694;2023-02-15T08:26:53;1.30;83.90
16503;DHT22;53067;48.114;11.694;2023-02-15T08:29:26;1.40;84.00
16503;DHT22;53067;48.114;11.694;2023-02-15T08:31:56;1.50;83.70
16503;DHT22;53067;48.114;11.694;2023-02-15T08:34:30;1.50;83.30
16503;DHT22;53067;48.114;11.694;2023-02-15T08:36:58;1.60;83.20
16503;DHT22;53067;48.114;11.694;2023-02-15T08:39:26;1.70;83.20
16503;DHT22;53067;48.114;11.694;2023-02-15T08:41:54;1.70;83.00
16503;DHT22;53067;48.114;11.694;2023-02-15T08:44:22;1.70;82.50
16503;DHT22;53067;48.114;11.694;2023-02-15T08:46:49;1.80;82.80
16503;DHT22;53067;48.114;11.694;2023-02-15T08:49:19;1.90;83.40
16503;DHT22;53067;48.114;11.694;2023-02-15T08:51:48;2.00;82.70
16503;DHT22;53067;48.114;11.694;2023-02-15T08:54:19;2.20;83.10
16503;DHT22;53067;48.114;11.694;2023-02-15T08:56:48;2.40;83.20
16503;DHT22;53067;48.114;11.694;2023-02-15T08:59:21;2.50;82.50
16503;DHT22;53067;48.114;11.694;2023-02-15T09:01:50;2.70;82.00
16503;DHT22;53067;48.114;11.694;2023-02-15T09:04:19;2.80;81.60
16503;DHT22;53067;48.114;11.694;2023-02-15T09:06:48;3.00;81.50
16503;DHT22;53067;48.114;11.694;2023-02-15T09:09:17;3.10;80.70
16503;DHT22;53067;48.114;11.694;2023-02-15T09:11:47;3.30;80.40
16503;DHT22;53067;48.114;11.694;2023-02-15T09:14:17;3.40;79.80
16503;DHT22;53067;48.114;11.694;2023-02-15T09:16:48;3.50;80.20
16503;DHT22;53067;48.114;11.694;2023-02-15T09:19:19;3.70;79.20
16503;DHT22;53067;48.114;11.694;2023-02-15T09:21:47;3.90;78.90
16503;DHT22;53067;48.114;11.694;2023-02-15T09:24:16;4.20;78.30
16503;DHT22;53067;48.114;11.694;2023-02-15T09:26:46;4.40;77.50
16503;DHT22;53067;48.114;11.694;2023-02-15T09:29:20;4.50;76.60
16503;DHT22;53067;48.114;11.694;2023-02-15T09:31:50;4.70;75.70
16503;DHT22;53067;48.114;11.694;2023-02-15T09:34:19;4.70;74.90
16503;DHT22;53067;48.114;11.694;2023-02-15T09:36:48;4.80;74.90
16503;DHT22;53067;48.114;11.694;2023-02-15T09:39:18;4.90;74.70
16503;DHT22;53067;48.114;11.694;2023-02-15T09:47:44;5.40;74.70
16503;DHT22;53067;48.114;11.694;2023-02-15T09:56:06;5.90;73.40
16503;DHT22;53067;48.114;11.694;2023-02-15T09:58:53;6.00;73.30
16503;DHT22;53067;48.114;11.694;2023-02-15T10:07:33;6.40;72.10
16503;DHT22;53067;48.114;11.694;2023-02-15T10:12:57;6.80;71.10
16503;DHT22;53067;48.114;11.694;2023-02-15T10:15:28;7.00;71.30
16503;DHT22;53067;48.114;11.694;2023-02-15T10:18:01;7.50;71.10
16503;DHT22;53067;48.114;11.694;2023-02-15T10:20:49;8.30;69.50
16503;DHT22;53067;48.114;11.694;2023-02-15T10:23:23;9.30;65.60
16503;DHT22;53067;48.114;11.694;2023-02-15T10:28:26;11.60;57.50
16503;DHT22;53067;48.114;11.694;2023-02-15T10:33:43;12.50;54.10
16503;DHT22;53067;48.114;11.694;2023-02-15T10:42:35;11.80;55.30
16503;DHT22;53067;48.114;11.694;2023-02-15T10:47:26;11.50;56.40
16503;DHT22;53067;48.114;11.694;2023-02-15T10:50:20;11.40;56.70
16503;DHT22;53067;48.114;11.694;2023-02-15T10:55:43;12.30;55.80
16503;DHT22;53067;48.114;11.694;2023-02-15T11:00:47;14.30;50.80
16503;DHT22;53067;48.114;11.694;2023-02-15T11:03:36;15.60;47.50
16503;DHT22;53067;48.114;11.694;2023-02-15T11:06:08;16.90;43.60
16503;DHT22;53067;48.114;11.694;2023-02-15T11:11:40;18.70;38.70
16503;DHT22;53067;48.114;11.694;2023-02-15T11:14:15;19.50;36.70
16503;DHT22;53067;48.114;11.694;2023-02-15T11:16:51;20.20;35.20
16503;DHT22;53067;48.114;11.694;2023-02-15T11:19:32;20.60;34.30
16503;DHT22;53067;48.114;11.694;2023-02-15T11:22:02;20.80;33.90
16503;DHT22;53067;48.114;11.694;2023-02-15T11:24:33;20.60;34.00
16503;DHT22;53067;48.114;11.694;2023-02-15T11:27:04;20.50;34.00
16503;DHT22;53067;48.114;11.694;2023-02-15T11:29:41;20.30;34.70
16503;DHT22;53067;48.114;11.694;2023-02-15T11:37:35;19.80;35.30
16503;DHT22;53067;48.114;11.694;2023-02-15T11:39:58;20.00;34.80
16503;DHT22;53067;48.114;11.694;2023-02-15T11:42:28;21.00;33.20
16503;DHT22;53067;48.114;11.694;2023-02-15T11:45:07;22.10;31.10
16503;DHT22;53067;48.114;11.694;2023-02-15T11:47:34;22.80;29.60
16503;DHT22;53067;48.114;11.694;2023-02-15T11:50:01;23.90;28.60
16503;DHT22;53067;48.114;11.694;2023-02-15T11:52:29;24.70;27.70
16503;DHT22;53067;48.114;11.694;2023-02-15T11:54:57;25.10;26.90
16503;DHT22;53067;48.114;11.694;2023-02-15T12:00:05;26.10;26.00
16503;DHT22;53067;48.114;11.694;2023-02-15T12:02:33;26.70;25.20
16503;DHT22;53067;48.114;11.694;2023-02-15T12:05:13;26.90;24.90
16503;DHT22;53067;48.114;11.694;2023-02-15T12:07:40;27.30;24.70
16503;DHT22;53067;48.114;11.694;2023-02-15T12:10:30;27.90;24.00
16503;DHT22;53067;48.114;11.694;2023-02-15T12:13:13;28.20;23.60
16503;DHT22;53067;48.114;11.694;2023-02-15T12:15:43;28.20;23.60
16503;DHT22;53067;48.114;11.694;2023-02-15T12:18:36;28.30;23.60
16503;DHT22;53067;48.114;11.694;2023-02-15T12:21:23;28.50;23.20
16503;DHT22;53067;48.114;11.694;2023-02-15T12:23:53;28.90;22.70
16503;DHT22;53067;48.114;11.694;2023-02-15T12:26:40;29.00;22.90
16503;DHT22;53067;48.114;11.694;2023-02-15T12:29:15;29.20;22.20
16503;DHT22;53067;48.114;11.694;2023-02-15T12:31:44;29.40;22.10
16503;DHT22;53067;48.114;11.694;2023-02-15T12:34:25;29.30;21.80
16503;DHT22;53067;48.114;11.694;2023-02-15T12:36:54;29.40;22.00
16503;DHT22;53067;48.114;11.694;2023-02-15T12:39:31;29.00;22.30
16503;DHT22;53067;48.114;11.694;2023-02-15T12:42:04;28.60;22.40
16503;DHT22;53067;48.114;11.694;2023-02-15T12:44:35;28.30;22.90
16503;DHT22;53067;48.114;11.694;2023-02-15T12:47:19;28.60;22.80
16503;DHT22;53067;48.114;11.694;2023-02-15T12:52:36;28.70;23.00
16503;DHT22;53067;48.114;11.694;2023-02-15T12:55:22;28.90;22.60
16503;DHT22;53067;48.114;11.694;2023-02-15T13:00:35;28.20;23.50
16503;DHT22;53067;48.114;11.694;2023-02-15T13:03:04;27.80;23.80
16503;DHT22;53067;48.114;11.694;2023-02-15T13:05:39;27.40;24.40
16503;DHT22;53067;48.114;11.694;2023-02-15T13:08:19;27.20;24.80
16503;DHT22;53067;48.114;11.694;2023-02-15T13:11:08;26.90;25.10
16503;DHT22;53067;48.114;11.694;2023-02-15T13:13:35;26.60;25.50
16503;DHT22;53067;48.114;11.694;2023-02-15T13:16:05;26.20;25.80
16503;DHT22;53067;48.114;11.694;2023-02-15T13:18:37;25.80;26.20
16503;DHT22;53067;48.114;11.694;2023-02-15T13:21:26;25.50;26.70
16503;DHT22;53067;48.114;11.694;2023-02-15T13:23:59;25.30;27.00
16503;DHT22;53067;48.114;11.694;2023-02-15T13:26:29;25.20;27.20
16503;DHT22;53067;48.114;11.694;2023-02-15T13:29:00;24.80;27.50
16503;DHT22;53067;48.114;11.694;2023-02-15T13:31:29;24.60;28.60
16503;DHT22;53067;48.114;11.694;2023-02-15T13:34:14;24.40;28.30
16503;DHT22;53067;48.114;11.694;2023-02-15T13:39:54;23.60;29.40
16503;DHT22;53067;48.114;11.694;2023-02-15T13:48:21;21.30;33.30
16503;DHT22;53067;48.114;11.694;2023-02-15T13:51:07;20.20;36.10
16503;DHT22;53067;48.114;11.694;2023-02-15T13:59:43;17.50;41.20
16503;DHT22;53067;48.114;11.694;2023-02-15T14:02:21;16.80;43.30
16503;DHT22;53067;48.114;11.694;2023-02-15T14:10:34;15.10;47.40
16503;DHT22;53067;48.114;11.694;2023-02-15T14:13:19;14.60;49.20
16503;DHT22;53067;48.114;11.694;2023-02-15T14:15:47;14.10;50.40
16503;DHT22;53067;48.114;11.694;2023-02-15T14:23:49;13.10;53.60
16503;DHT22;53067;48.114;11.694;2023-02-15T14:29:27;12.40;56.10
16503;DHT22;53067;48.114;11.694;2023-02-15T14:31:44;12.00;57.30
16503;DHT22;53067;48.114;11.694;2023-02-15T14:34:35;11.80;60.30
16503;DHT22;53067;48.114;11.694;2023-02-15T14:36:38;11.60;60.00
16503;DHT22;53067;48.114;11.694;2023-02-15T14:39:18;11.40;58.50
16503;DHT22;53067;48.114;11.694;2023-02-15T14:41:52;11.30;58.90
16503;DHT22;53067;48.114;11.694;2023-02-15T14:44:36;11.20;59.30
16503;DHT22;53067;48.114;11.694;2023-02-15T14:47:10;11.10;60.00
16503;DHT22;53067;48.114;11.694;2023-02-15T14:49:38;10.90;60.50
16503;DHT22;53067;48.114;11.694;2023-02-15T14:52:10;10.80;61.50
16503;DHT22;53067;48.114;11.694;2023-02-15T14:59:57;10.40;63.80
16503;DHT22;53067;48.114;11.694;2023-02-15T15:02:46;10.30;64.20
16503;DHT22;53067;48.114;11.694;2023-02-15T15:05:34;10.20;64.80
16503;DHT22;53067;48.114;11.694;2023-02-15T15:08:04;10.00;65.00
16503;DHT22;53067;48.114;11.694;2023-02-15T15:10:38;9.90;65.50
16503;DHT22;53067;48.114;11.694;2023-02-15T15:15:53;9.80;66.50
16503;DHT22;53067;48.114;11.694;2023-02-15T15:18:44;9.60;66.80
16503;DHT22;53067;48.114;11.694;2023-02-15T15:23:59;9.50;67.60
16503;DHT22;53067;48.114;11.694;2023-02-15T15:26:29;9.40;67.90
16503;DHT22;53067;48.114;11.694;2023-02-15T15:29:00;9.30;68.80
16503;DHT22;53067;48.114;11.694;2023-02-15T15:31:47;9.10;69.40
16503;DHT22;53067;48.114;11.694;2023-02-15T15:34:43;9.10;69.30
16503;DHT22;53067;48.114;11.694;2023-02-15T15:37:41;9.10;69.80
16503;DHT22;53067;48.114;11.694;2023-02-15T15:43:23;8.80;70.30
16503;DHT22;53067;48.114;11.694;2023-02-15T15:48:36;8.70;70.80
16503;DHT22;53067;48.114;11.694;2023-02-15T15:51:14;8.60;72.00
16503;DHT22;53067;48.114;11.694;2023-02-15T15:53:46;8.50;71.20
16503;DHT22;53067;48.114;11.694;2023-02-15T15:56:23;8.40;71.30
16503;DHT22;53067;48.114;11.694;2023-02-15T15:58:56;8.30;71.70
16503;DHT22;53067;48.114;11.694;2023-02-15T16:01:34;8.10;71.90
16503;DHT22;53067;48.114;11.694;2023-02-15T16:04:00;8.00;72.30
16503;DHT22;53067;48.114;11.694;2023-02-15T16:06:36;7.80;72.50
16503;DHT22;53067;48.114;11.694;2023-02-15T16:09:26;7.70;72.90
16503;DHT22;53067;48.114;11.694;2023-02-15T16:12:00;7.60;73.20
16503;DHT22;53067;48.114;11.694;2023-02-15T16:14:39;7.50;73.80
16503;DHT22;53067;48.114;11.694;2023-02-15T16:17:17;7.30;73.60
16503;DHT22;53067;48.114;11.694;2023-02-15T16:19:41;7.30;74.20
16503;DHT22;53067;48.114;11.694;2023-02-15T16:22:19;7.10;74.60
16503;DHT22;53067;48.114;11.694;2023-02-15T16:27:40;7.00;75.40
16503;DHT22;53067;48.114;11.694;2023-02-15T16:30:29;6.90;75.40
16503;DHT22;53067;48.114;11.694;2023-02-15T16:33:15;6.90;75.60
16503;DHT22;53067;48.114;11.694;2023-02-15T16:35:59;6.70;76.10
16503;DHT22;53067;48.114;11.694;2023-02-15T16:41:15;6.60;76.80
16503;DHT22;53067;48.114;11.694;2023-02-15T16:43:46;6.50;77.20
16503;DHT22;53067;48.114;11.694;2023-02-15T16:46:30;6.30;78.10
16503;DHT22;53067;48.114;11.694;2023-02-15T16:49:04;6.30;78.40
16503;DHT22;53067;48.114;11.694;2023-02-15T16:51:31;6.20;78.60
16503;DHT22;53067;48.114;11.694;2023-02-15T16:54:15;6.10;79.30
16503;DHT22;53067;48.114;11.694;2023-02-15T16:56:30;6.00;79.80
16503;DHT22;53067;48.114;11.694;2023-02-15T16:58:59;5.90;79.90
16503;DHT22;53067;48.114;11.694;2023-02-15T17:01:30;5.90;80.70
16503;DHT22;53067;48.114;11.694;2023-02-15T17:04:35;5.80;80.60
16503;DHT22;53067;48.114;11.694;2023-02-15T17:06:56;5.80;81.00
16503;DHT22;53067;48.114;11.694;2023-02-15T17:09:16;5.70;81.40
16503;DHT22;53067;48.114;11.694;2023-02-15T17:11:48;5.70;81.50
16503;DHT22;53067;48.114;11.694;2023-02-15T17:14:21;5.70;81.70
16503;DHT22;53067;48.114;11.694;2023-02-15T17:17:00;5.70;82.00
16503;DHT22;53067;48.114;11.694;2023-02-15T17:19:30;5.70;82.00
16503;DHT22;53067;48.114;11.694;2023-02-15T17:22:04;5.70;82.20
16503;DHT22;53067;48.114;11.694;2023-02-15T17:24:43;5.60;82.10
16503;DHT22;53067;48.114;11.694;2023-02-15T17:27:28;5.60;82.30
16503;DHT22;53067;48.114;11.694;2023-02-15T17:29:50;5.60;82.30
16503;DHT22;53067;48.114;11.694;2023-02-15T17:32:21;5.50;82.40
16503;DHT22;53067;48.114;11.694;2023-02-15T17:34:50;5.50;82.70
16503;DHT22;53067;48.114;11.694;2023-02-15T17:37:30;5.50;82.60
16503;DHT22;53067;48.114;11.694;2023-02-15T17:39:59;5.50;82.80
16503;DHT22;53067;48.114;11.694;2023-02-15T17:42:27;5.40;82.80
16503;DHT22;53067;48.114;11.694;2023-02-15T17:44:54;5.40;83.00
16503;DHT22;53067;48.114;11.694;2023-02-15T17:47:23;5.40;83.10
16503;DHT22;53067;48.114;11.694;2023-02-15T17:49:53;5.30;83.40
16503;DHT22;53067;48.114;11.694;2023-02-15T17:52:20;5.30;83.30
16503;DHT22;53067;48.114;11.694;2023-02-15T17:54:48;5.30;83.50
16503;DHT22;53067;48.114;11.694;2023-02-15T17:57:33;5.30;83.80
16503;DHT22;53067;48.114;11.694;2023-02-15T18:00:01;5.20;83.50
16503;DHT22;53067;48.114;11.694;2023-02-15T18:02:47;5.20;83.60
16503;DHT22;53067;48.114;11.694;2023-02-15T18:05:32;5.20;84.10
16503;DHT22;53067;48.114;11.694;2023-02-15T18:08:20;5.20;84.20
16503;DHT22;53067;48.114;11.694;2023-02-15T18:11:08;5.10;84.70